Hauptseite
METAR-TAF:

METAR-TAF

Flughäfen :

Flughafen Avignon

Avignon, Frankreich

Breite: 43-54-26N, Länge: 004-54-07E, Höhe: 38 m

Beobachtung

Neuester Wetterbericht von vor 32 Minuten, um 13:00 UTC
Wind 19 kt aus Nord, variierte zwischen Nordwest und Nord/Nordost
Temperatur 32°C
Luftfeuchtigkeit 32%
Luftdruck 1014 hPa
Sichtweite 10 km oder mehr
keine Wolken unter 1500 m und keine Kumulonimbus oder Gewitterwolken

METAR: LFMV 171300Z AUTO 35019KT 310V020 CAVOK 32/13 Q1014 TEMPO 35020G30KT

Zeit: 15:32 (13:32 UTC)

Prognose

Neuester Wetterbericht von vor 5 Stunden und 32 Minuten, um 08:00 UTC
Gültige Prognose vom 17 um 09 UTC bis 18 um 09 UTC
Wind 15 kt aus Nord
Sichtweite 10 km oder mehr
keine Wolken unter 1500 m und keine Kumulonimbus oder Gewitterwolken
Zeitweise
vom 17 um 09 UTC bis 17 um 18 UTC
Wind 20 kt aus Nord, Böen bis zu 30 kt

TAF: LFMV 170800Z 1709/1809 35015KT CAVOK TEMPO 1709/1718 35020G30KT

Wetterbeobachtungen und Prognosen von mehr als 4000 Flughäfen (METAR und TAF Bericht).

Die verfügbaren Stationen werden durch gelbe und rote Markierungen auf der Karte dargestellt.

Führen Sie die Maus auf sie, um den Namen der Station zu sehen.

Darauf klicken, um die Beobachtung von Wetterbeobachtungen und Prognosen zu sehen.

Um die Karte zu ändern : klicken Sie auf den grünen Tasten mit einem schwarzen Kreuz Zum Vergrößern, auf den grünen Button mit einem Gedankenstrich zu verkleinern, oder auf die grünen Pfeile für benachbarte Karten.


METAR-TAF: